Time;durP1;ratioP1;P1;durP2;ratioP2;P2;SDS_P1;SDS_P2;PMS_P1;PMS_P2;Temp;Humidity;BMP_temperature;BMP_pressure;BME280_temperature;BME280_humidity;BME280_pressure;Samples;Min_cycle;Max_cycle;Signal;HPM_P1;HPM_P2
2023/05/31 15:13:13;0.00;0.00;0.62;0.00;0.00;0.62;2.47;1.53;;;23.10;28.00;;;;;;1577121;88;20773;-65
2023/05/31 15:15:59;0.00;0.00;0.62;0.00;0.00;0.62;1.70;1.20;;;23.10;28.70;;;;;;1672389;74;20488;-71
2023/05/31 15:18:43;0.00;0.00;0.62;0.00;0.00;0.62;1.60;1.00;;;23.20;28.70;;;;;;2264393;61;20801;-69
2023/05/31 15:21:28;0.00;0.00;0.62;0.00;0.00;0.62;1.90;1.20;;;23.50;28.50;;;;;;2263961;61;20395;-70
2023/05/31 15:24:13;0.00;0.00;0.62;0.00;0.00;0.62;1.80;1.13;;;23.70;28.20;;;;;;2264057;61;20415;-67
2023/05/31 15:26:57;0.00;0.00;0.62;0.00;0.00;0.62;1.70;1.00;;;23.90;28.10;;;;;;2262924;61;20379;-66
2023/05/31 15:29:42;0.00;0.00;0.62;0.00;0.00;0.62;1.77;1.13;;;24.10;27.90;;;;;;2265403;61;20372;-69
2023/05/31 15:32:29;0.00;0.00;0.62;0.00;0.00;0.62;1.50;1.00;;;24.30;27.80;;;;;;2264111;61;20475;-68
2023/05/31 15:35:14;0.00;0.00;0.62;0.00;0.00;0.62;1.50;0.90;;;24.40;27.60;;;;;;2264291;61;20457;-67
2023/05/31 15:37:58;0.00;0.00;0.62;0.00;0.00;0.62;1.70;1.10;;;24.60;27.60;;;;;;2261263;61;20984;-67
2023/05/31 15:40:43;0.00;0.00;0.62;0.00;0.00;0.62;1.40;0.90;;;24.70;27.50;;;;;;2257886;61;20484;-69
2023/05/31 15:43:28;0.00;0.00;0.62;0.00;0.00;0.62;1.70;1.13;;;24.80;27.40;;;;;;2259985;61;20941;-69
2023/05/31 15:46:13;0.00;0.00;0.62;0.00;0.00;0.62;2.17;1.47;;;25.00;27.40;;;;;;2259626;61;20365;-66
2023/05/31 15:48:59;0.00;0.00;0.62;0.00;0.00;0.62;3.30;1.57;;;25.10;27.30;;;;;;2259415;61;20384;-66
2023/05/31 15:51:44;0.00;0.00;0.62;0.00;0.00;0.62;2.30;1.00;;;25.20;27.30;;;;;;2259035;61;20479;-71
2023/05/31 15:54:29;0.00;0.00;0.62;0.00;0.00;0.62;1.90;1.10;;;25.30;27.20;;;;;;2259751;61;20436;-69
2023/05/31 15:57:14;0.00;0.00;0.62;0.00;0.00;0.62;1.80;1.30;;;25.40;27.00;;;;;;2259850;61;20408;-68
2023/05/31 15:59:59;0.00;0.00;0.62;0.00;0.00;0.62;2.37;1.27;;;25.50;27.00;;;;;;2260781;61;20357;-71
2023/05/31 16:02:44;0.00;0.00;0.62;0.00;0.00;0.62;1.83;1.40;;;25.50;26.90;;;;;;2260685;61;20378;-66
2023/05/31 16:05:30;0.00;0.00;0.62;0.00;0.00;0.62;1.83;1.40;;;25.60;26.80;;;;;;2262073;61;20360;-68
2023/05/31 16:08:15;0.00;0.00;0.62;0.00;0.00;0.62;2.17;1.40;;;25.70;26.80;;;;;;2264519;61;20452;-71
2023/05/31 16:11:00;0.00;0.00;0.62;0.00;0.00;0.62;1.50;1.03;;;25.70;26.70;;;;;;2264619;61;20379;-67
2023/05/31 16:13:44;0.00;0.00;0.62;0.00;0.00;0.62;1.70;1.20;;;25.80;26.70;;;;;;2264462;61;20440;-69
2023/05/31 16:16:31;0.00;0.00;0.62;0.00;0.00;0.62;1.60;1.10;;;25.90;26.70;;;;;;2263612;61;20372;-71
2023/05/31 16:19:16;0.00;0.00;0.62;0.00;0.00;0.62;2.00;1.23;;;26.00;26.60;;;;;;2263333;61;20791;-68
2023/05/31 16:22:02;0.00;0.00;0.62;0.00;0.00;0.62;1.90;1.30;;;26.00;26.50;;;;;;2262916;61;20380;-69
2023/05/31 16:24:47;0.00;0.00;0.62;0.00;0.00;0.62;2.47;1.40;;;26.10;26.50;;;;;;2263456;61;20360;-68
2023/05/31 16:27:32;0.00;0.00;0.62;0.00;0.00;0.62;2.00;1.70;;;26.20;26.50;;;;;;2260272;61;20834;-68
2023/05/31 16:30:16;0.00;0.00;0.62;0.00;0.00;0.62;2.30;1.47;;;26.20;26.40;;;;;;2260336;61;20411;-68
2023/05/31 16:33:01;0.00;0.00;0.62;0.00;0.00;0.62;2.10;1.90;;;26.30;26.40;;;;;;2260384;61;20448;-70
2023/05/31 16:35:46;0.00;0.00;0.62;0.00;0.00;0.62;2.73;1.60;;;26.30;26.30;;;;;;2260638;61;20868;-69
2023/05/31 16:38:33;0.00;0.00;0.62;0.00;0.00;0.62;2.60;1.50;;;26.40;26.30;;;;;;2260115;61;20418;-69
2023/05/31 16:41:17;0.00;0.00;0.62;0.00;0.00;0.62;2.00;1.17;;;26.50;26.20;;;;;;2260182;61;20425;-69
2023/05/31 16:44:02;0.00;0.00;0.62;0.00;0.00;0.62;2.90;1.50;;;26.50;26.10;;;;;;2260774;61;20376;-69
2023/05/31 16:46:46;0.00;0.00;0.62;0.00;0.00;0.62;3.50;1.53;;;26.60;26.10;;;;;;2260683;61;20361;-69
2023/05/31 16:49:31;0.00;0.00;0.62;0.00;0.00;0.62;2.33;1.40;;;26.60;26.00;;;;;;2260398;61;20420;-68
2023/05/31 16:52:17;0.00;0.00;0.62;0.00;0.00;0.62;3.00;1.57;;;26.70;26.60;;;;;;2260436;61;20401;-73
2023/05/31 16:55:03;0.00;0.00;0.62;0.00;0.00;0.62;2.20;1.40;;;26.70;25.90;;;;;;2260295;61;20428;-68
2023/05/31 16:57:49;0.00;0.00;0.62;0.00;0.00;0.62;2.13;1.60;;;26.80;25.90;;;;;;2260741;61;20411;-69
2023/05/31 17:00:35;0.00;0.00;0.62;0.00;0.00;0.62;2.23;1.80;;;26.80;25.90;;;;;;2260332;61;20427;-68
2023/05/31 17:03:20;0.00;0.00;0.62;0.00;0.00;0.62;2.90;1.73;;;26.90;25.80;;;;;;2260538;61;20946;-69
2023/05/31 17:06:05;0.00;0.00;0.62;0.00;0.00;0.62;2.37;1.70;;;27.00;26.00;;;;;;2260743;61;20484;-68
2023/05/31 17:08:50;0.00;0.00;0.62;0.00;0.00;0.62;2.73;1.77;;;27.00;25.80;;;;;;2260342;61;20368;-69
2023/05/31 17:11:38;0.00;0.00;0.62;0.00;0.00;0.62;3.50;1.93;;;27.00;25.70;;;;;;2260037;61;20986;-69
2023/05/31 17:14:23;0.00;0.00;0.62;0.00;0.00;0.62;2.33;1.57;;;27.00;25.60;;;;;;2260637;61;20428;-68
2023/05/31 17:17:08;0.00;0.00;0.62;0.00;0.00;0.62;2.17;1.60;;;27.10;25.60;;;;;;2260307;61;20883;-68
2023/05/31 17:19:53;0.00;0.00;0.62;0.00;0.00;0.62;1.87;1.30;;;27.10;25.60;;;;;;2260705;61;20931;-68
2023/05/31 17:22:39;0.00;0.00;0.62;0.00;0.00;0.62;2.40;1.70;;;27.20;25.60;;;;;;2260652;61;20369;-73
2023/05/31 17:25:26;0.00;0.00;0.62;0.00;0.00;0.62;1.87;1.40;;;27.20;25.50;;;;;;2260419;61;20438;-69
2023/05/31 17:28:12;0.00;0.00;0.62;0.00;0.00;0.62;1.90;1.47;;;27.20;25.50;;;;;;2260453;61;21019;-69
2023/05/31 17:30:57;0.00;0.00;0.62;0.00;0.00;0.62;1.83;1.30;;;27.30;25.40;;;;;;2260271;61;20389;-71
2023/05/31 17:33:42;0.00;0.00;0.62;0.00;0.00;0.62;2.07;1.37;;;27.30;25.40;;;;;;2260509;61;20416;-68
2023/05/31 17:36:27;0.00;0.00;0.62;0.00;0.00;0.62;2.80;1.87;;;27.40;25.40;;;;;;2260706;61;20361;-69
2023/05/31 17:39:11;0.00;0.00;0.62;0.00;0.00;0.62;2.50;2.10;;;27.40;25.30;;;;;;2260036;61;20360;-69
2023/05/31 17:41:56;0.00;0.00;0.62;0.00;0.00;0.62;2.10;1.40;;;27.40;25.30;;;;;;2260073;61;20824;-69
2023/05/31 17:44:43;0.00;0.00;0.62;0.00;0.00;0.62;1.97;1.47;;;27.50;25.20;;;;;;2260475;61;20380;-69
2023/05/31 17:47:27;0.00;0.00;0.62;0.00;0.00;0.62;1.93;1.53;;;27.50;25.20;;;;;;2260408;61;20370;-68
2023/05/31 17:50:12;0.00;0.00;0.62;0.00;0.00;0.62;1.80;1.47;;;27.50;25.10;;;;;;2259975;61;20404;-69
2023/05/31 17:52:57;0.00;0.00;0.62;0.00;0.00;0.62;3.10;1.50;;;27.50;25.10;;;;;;2260486;61;20507;-70
2023/05/31 17:55:41;0.00;0.00;0.62;0.00;0.00;0.62;2.07;1.57;;;27.60;25.10;;;;;;2260191;61;20396;-68
2023/05/31 17:58:27;0.00;0.00;0.62;0.00;0.00;0.62;2.30;1.60;;;27.60;25.00;;;;;;2260513;61;20416;-69
2023/05/31 18:01:17;0.00;0.00;0.62;0.00;0.00;0.62;1.90;1.53;;;27.60;24.90;;;;;;2259857;61;20797;-69
2023/05/31 18:04:02;0.00;0.00;0.62;0.00;0.00;0.62;2.27;1.63;;;27.70;25.00;;;;;;2260607;61;20357;-70
2023/05/31 18:06:47;0.00;0.00;0.62;0.00;0.00;0.62;2.30;1.67;;;27.70;24.90;;;;;;2260374;61;20408;-68
2023/05/31 18:09:33;0.00;0.00;0.62;0.00;0.00;0.62;1.97;1.50;;;27.70;24.90;;;;;;2260303;61;20373;-70
2023/05/31 18:12:17;0.00;0.00;0.62;0.00;0.00;0.62;2.60;1.87;;;27.70;24.80;;;;;;2259835;61;20388;-68
2023/05/31 18:15:03;0.00;0.00;0.62;0.00;0.00;0.62;2.40;1.57;;;27.80;24.80;;;;;;2259841;61;20858;-69
2023/05/31 18:17:49;0.00;0.00;0.62;0.00;0.00;0.62;1.80;1.40;;;27.80;24.70;;;;;;2260193;61;20369;-68
2023/05/31 18:20:34;0.00;0.00;0.62;0.00;0.00;0.62;3.30;2.17;;;27.80;24.70;;;;;;2260168;61;20434;-69
2023/05/31 18:23:19;0.00;0.00;0.62;0.00;0.00;0.62;2.10;1.47;;;27.80;24.70;;;;;;2260483;61;20396;-69
2023/05/31 18:26:04;0.00;0.00;0.62;0.00;0.00;0.62;2.23;1.57;;;27.80;24.60;;;;;;2260456;61;20435;-69
2023/05/31 18:28:49;0.00;0.00;0.62;0.00;0.00;0.62;2.20;1.70;;;27.80;24.60;;;;;;2260224;61;20360;-69
2023/05/31 18:31:34;0.00;0.00;0.62;0.00;0.00;0.62;2.30;1.73;;;27.90;24.50;;;;;;2259915;61;20384;-69
2023/05/31 18:34:19;0.00;0.00;0.62;0.00;0.00;0.62;2.07;1.53;;;27.90;24.50;;;;;;2260221;61;20986;-68
2023/05/31 18:37:05;0.00;0.00;0.62;0.00;0.00;0.62;2.40;1.70;;;27.90;24.50;;;;;;2260276;61;20400;-70
2023/05/31 18:39:50;0.00;0.00;0.62;0.00;0.00;0.62;2.40;1.57;;;27.90;24.50;;;;;;2260025;61;20777;-69
2023/05/31 18:42:35;0.00;0.00;0.62;0.00;0.00;0.62;2.57;1.40;;;27.90;24.50;;;;;;2260173;61;20393;-70
2023/05/31 18:45:21;0.00;0.00;0.62;0.00;0.00;0.62;2.03;1.50;;;28.00;24.60;;;;;;2260154;61;20385;-69
2023/05/31 18:48:06;0.00;0.00;0.62;0.00;0.00;0.62;2.90;1.60;;;28.00;24.60;;;;;;2260125;61;20364;-69
2023/05/31 18:50:52;0.00;0.00;0.62;0.00;0.00;0.62;2.50;1.70;;;28.00;24.60;;;;;;2259643;61;20401;-69
2023/05/31 18:53:37;0.00;0.00;0.62;0.00;0.00;0.62;2.50;1.80;;;28.00;24.60;;;;;;2259837;61;20365;-68
2023/05/31 18:56:22;0.00;0.00;0.62;0.00;0.00;0.62;2.47;1.77;;;28.00;24.60;;;;;;2259740;61;20420;-68
2023/05/31 18:59:07;0.00;0.00;0.62;0.00;0.00;0.62;2.87;1.50;;;28.00;24.60;;;;;;2260412;61;20364;-68
2023/05/31 19:01:51;0.00;0.00;0.62;0.00;0.00;0.62;1.70;1.40;;;28.00;24.60;;;;;;2259765;61;20469;-73
2023/05/31 19:04:36;0.00;0.00;0.62;0.00;0.00;0.62;1.63;1.10;;;28.00;24.60;;;;;;2260236;61;20357;-68
2023/05/31 19:07:22;0.00;0.00;0.62;0.00;0.00;0.62;1.63;1.10;;;28.00;24.60;;;;;;2260395;61;20360;-72
2023/05/31 19:10:08;0.00;0.00;0.62;0.00;0.00;0.62;2.90;1.87;;;28.00;24.50;;;;;;2259810;61;20465;-69
2023/05/31 19:12:53;0.00;0.00;0.62;0.00;0.00;0.62;3.30;1.90;;;28.10;24.60;;;;;;2260116;61;20364;-70
2023/05/31 19:15:38;0.00;0.00;0.62;0.00;0.00;0.62;1.93;1.30;;;28.10;24.60;;;;;;2259908;61;20393;-68
2023/05/31 19:18:22;0.00;0.00;0.62;0.00;0.00;0.62;1.80;1.33;;;28.10;24.50;;;;;;2260239;61;20369;-69
2023/05/31 19:21:07;0.00;0.00;0.62;0.00;0.00;0.62;1.70;1.27;;;28.10;24.50;;;;;;2259795;61;20427;-68
2023/05/31 19:23:53;0.00;0.00;0.62;0.00;0.00;0.62;2.60;1.33;;;28.10;24.50;;;;;;2259949;61;20368;-68
2023/05/31 19:26:38;0.00;0.00;0.62;0.00;0.00;0.62;2.17;1.50;;;28.10;24.50;;;;;;2260213;61;20377;-69
2023/05/31 19:29:22;0.00;0.00;0.62;0.00;0.00;0.62;2.63;1.77;;;28.10;24.50;;;;;;2260111;61;20777;-69
2023/05/31 19:32:07;0.00;0.00;0.62;0.00;0.00;0.62;2.53;1.40;;;28.10;24.50;;;;;;2259698;61;20385;-69
2023/05/31 19:34:51;0.00;0.00;0.62;0.00;0.00;0.62;1.90;1.40;;;28.10;24.40;;;;;;2260071;61;20924;-69
2023/05/31 19:37:36;0.00;0.00;0.62;0.00;0.00;0.62;1.83;1.40;;;28.10;24.40;;;;;;2259548;61;20364;-68
2023/05/31 19:40:22;0.00;0.00;0.62;0.00;0.00;0.62;2.00;1.30;;;28.10;24.40;;;;;;2259822;61;20368;-69
2023/05/31 19:43:06;0.00;0.00;0.62;0.00;0.00;0.62;2.53;1.40;;;28.10;24.40;;;;;;2260129;61;20368;-68
2023/05/31 19:45:51;0.00;0.00;0.62;0.00;0.00;0.62;1.90;1.50;;;28.10;24.40;;;;;;2259907;61;20364;-68
2023/05/31 19:48:36;0.00;0.00;0.62;0.00;0.00;0.62;2.73;1.43;;;28.10;24.40;;;;;;2260246;61;20388;-69
2023/05/31 19:51:22;0.00;0.00;0.62;0.00;0.00;0.62;1.87;1.20;;;28.10;24.40;;;;;;2259653;61;20388;-69
2023/05/31 19:54:07;0.00;0.00;0.62;0.00;0.00;0.62;1.83;1.27;;;28.10;24.30;;;;;;2260038;61;20372;-69
2023/05/31 19:56:53;0.00;0.00;0.62;0.00;0.00;0.62;2.03;1.60;;;28.10;24.40;;;;;;2260105;61;20877;-69
2023/05/31 19:59:38;0.00;0.00;0.62;0.00;0.00;0.62;2.60;1.43;;;28.10;24.30;;;;;;2260396;61;20373;-68
2023/05/31 20:02:23;0.00;0.00;0.62;0.00;0.00;0.62;1.87;1.63;;;28.10;24.30;;;;;;2260449;61;20431;-70
2023/05/31 20:05:08;0.00;0.00;0.62;0.00;0.00;0.62;2.90;2.00;;;28.10;24.30;;;;;;2260831;61;20493;-70
2023/05/31 20:07:55;0.00;0.00;0.62;0.00;0.00;0.62;2.90;1.40;;;28.10;24.30;;;;;;2260631;61;20381;-69
2023/05/31 20:10:43;0.00;0.00;0.62;0.00;0.00;0.62;3.23;1.77;;;28.10;24.30;;;;;;2260513;61;20396;-68
2023/05/31 20:13:29;0.00;0.00;0.62;0.00;0.00;0.62;4.53;1.70;;;28.10;24.30;;;;;;2260724;61;20364;-68
2023/05/31 20:16:14;0.00;0.00;0.62;0.00;0.00;0.62;2.20;1.50;;;28.10;24.30;;;;;;2260521;61;20393;-71
2023/05/31 20:18:59;0.00;0.00;0.62;0.00;0.00;0.62;2.30;1.60;;;28.10;24.30;;;;;;2260255;61;20416;-68
2023/05/31 20:21:45;0.00;0.00;0.62;0.00;0.00;0.62;2.67;1.70;;;28.10;24.20;;;;;;2260546;61;20383;-69
2023/05/31 20:24:30;0.00;0.00;0.62;0.00;0.00;0.62;2.00;1.30;;;28.10;24.20;;;;;;2260736;61;20457;-69
2023/05/31 20:27:15;0.00;0.00;0.62;0.00;0.00;0.62;2.83;1.80;;;28.10;24.20;;;;;;2260778;61;20755;-69
2023/05/31 20:30:02;0.00;0.00;0.62;0.00;0.00;0.62;2.20;1.57;;;28.10;24.20;;;;;;2260596;61;20361;-68
2023/05/31 20:32:46;0.00;0.00;0.62;0.00;0.00;0.62;2.73;1.50;;;28.10;24.20;;;;;;2260809;61;20396;-69
2023/05/31 20:35:31;0.00;0.00;0.62;0.00;0.00;0.62;2.93;1.90;;;28.10;24.20;;;;;;2260786;61;20412;-69
2023/05/31 20:38:16;0.00;0.00;0.62;0.00;0.00;0.62;2.33;1.90;;;28.10;24.20;;;;;;2260677;61;20361;-69
2023/05/31 20:41:00;0.00;0.00;0.62;0.00;0.00;0.62;1.83;1.30;;;28.10;24.20;;;;;;2260103;61;20384;-69
2023/05/31 20:43:45;0.00;0.00;0.62;0.00;0.00;0.62;1.80;1.50;;;28.10;24.20;;;;;;2260712;61;20919;-70
2023/05/31 20:46:31;0.00;0.00;0.62;0.00;0.00;0.62;3.53;1.83;;;28.10;24.20;;;;;;2260604;61;20512;-69
2023/05/31 20:49:16;0.00;0.00;0.62;0.00;0.00;0.62;2.73;1.93;;;28.10;24.20;;;;;;2260348;61;20400;-68
2023/05/31 20:52:03;0.00;0.00;0.62;0.00;0.00;0.62;2.43;1.60;;;28.10;24.20;;;;;;2259768;61;20412;-69
2023/05/31 20:54:49;0.00;0.00;0.62;0.00;0.00;0.62;2.27;1.47;;;28.10;24.10;;;;;;2260815;61;20503;-70
2023/05/31 20:57:34;0.00;0.00;0.62;0.00;0.00;0.62;4.50;2.43;;;28.10;24.20;;;;;;2260683;61;20361;-68
2023/05/31 21:00:21;0.00;0.00;0.62;0.00;0.00;0.62;2.53;1.97;;;28.00;24.10;;;;;;2260165;61;20404;-68
2023/05/31 21:03:08;0.00;0.00;0.62;0.00;0.00;0.62;3.00;2.20;;;28.10;24.20;;;;;;2260626;61;20419;-69
2023/05/31 21:05:52;0.00;0.00;0.62;0.00;0.00;0.62;1.90;1.60;;;28.10;24.20;;;;;;2260654;61;20387;-69
2023/05/31 21:08:37;0.00;0.00;0.62;0.00;0.00;0.62;2.83;2.07;;;28.10;24.20;;;;;;2260594;61;20404;-68
2023/05/31 21:11:22;0.00;0.00;0.62;0.00;0.00;0.62;3.30;2.27;;;28.10;24.20;;;;;;2260243;61;20399;-69
2023/05/31 21:14:07;0.00;0.00;0.62;0.00;0.00;0.62;2.40;1.87;;;28.10;24.20;;;;;;2260108;61;20361;-68
2023/05/31 21:16:54;0.00;0.00;0.62;0.00;0.00;0.62;2.53;1.90;;;28.10;24.20;;;;;;2260752;61;20357;-68
2023/05/31 21:19:40;0.00;0.00;0.62;0.00;0.00;0.62;2.10;1.73;;;28.10;24.20;;;;;;2260450;61;20365;-69
2023/05/31 21:22:25;0.00;0.00;0.62;0.00;0.00;0.62;2.73;2.23;;;28.10;24.20;;;;;;2260198;61;20385;-69
2023/05/31 21:25:09;0.00;0.00;0.62;0.00;0.00;0.62;2.80;2.27;;;28.10;24.20;;;;;;2260516;61;20399;-69
2023/05/31 21:27:56;0.00;0.00;0.62;0.00;0.00;0.62;2.97;2.40;;;28.00;24.20;;;;;;2260785;61;20361;-69
2023/05/31 21:30:41;0.00;0.00;0.62;0.00;0.00;0.62;2.60;2.00;;;28.00;24.20;;;;;;2259902;61;20469;-69
2023/05/31 21:33:25;0.00;0.00;0.62;0.00;0.00;0.62;3.17;2.60;;;28.00;24.20;;;;;;2260623;61;20411;-68
2023/05/31 21:36:12;0.00;0.00;0.62;0.00;0.00;0.62;3.33;2.60;;;28.10;24.20;;;;;;2260286;61;20439;-68
2023/05/31 21:38:56;0.00;0.00;0.62;0.00;0.00;0.62;3.70;2.40;;;28.00;24.20;;;;;;2260610;61;20392;-68
2023/05/31 21:41:42;0.00;0.00;0.62;0.00;0.00;0.62;2.93;2.53;;;28.00;24.20;;;;;;2260103;61;20419;-69
2023/05/31 21:44:26;0.00;0.00;0.62;0.00;0.00;0.62;2.50;2.00;;;28.10;24.20;;;;;;2260521;61;20415;-69
2023/05/31 21:47:11;0.00;0.00;0.62;0.00;0.00;0.62;2.47;2.10;;;28.00;24.20;;;;;;2259892;61;20366;-68
2023/05/31 21:49:57;0.00;0.00;0.62;0.00;0.00;0.62;3.13;2.10;;;28.00;24.20;;;;;;2260516;61;20917;-69
2023/05/31 21:52:43;0.00;0.00;0.62;0.00;0.00;0.62;2.70;2.40;;;28.00;24.20;;;;;;2260330;61;20450;-68
2023/05/31 21:55:28;0.00;0.00;0.62;0.00;0.00;0.62;2.43;2.23;;;28.00;24.20;;;;;;2260362;61;20424;-69
2023/05/31 21:58:12;0.00;0.00;0.62;0.00;0.00;0.62;2.57;2.30;;;28.00;24.20;;;;;;2260177;61;20504;-68
2023/05/31 22:00:57;0.00;0.00;0.62;0.00;0.00;0.62;3.60;2.20;;;28.00;24.20;;;;;;2259952;61;20381;-68
2023/05/31 22:03:44;0.00;0.00;0.62;0.00;0.00;0.62;2.93;2.50;;;28.00;24.20;;;;;;2260205;61;20932;-69
2023/05/31 22:06:32;0.00;0.00;0.62;0.00;0.00;0.62;2.50;2.03;;;28.00;24.20;;;;;;2260168;61;20369;-69
2023/05/31 22:09:18;0.00;0.00;0.62;0.00;0.00;0.62;3.40;2.47;;;28.00;24.20;;;;;;2260185;61;20461;-69
2023/05/31 22:12:05;0.00;0.00;0.62;0.00;0.00;0.62;3.20;2.60;;;28.00;24.20;;;;;;2259993;61;20492;-68
2023/05/31 22:14:54;0.00;0.00;0.62;0.00;0.00;0.62;4.43;2.50;;;28.00;24.20;;;;;;2260185;61;20432;-68
2023/05/31 22:17:43;0.00;0.00;0.62;0.00;0.00;0.62;4.57;2.70;;;28.00;24.70;;;;;;2260497;61;21024;-70
2023/05/31 22:20:28;0.00;0.00;0.62;0.00;0.00;0.62;4.03;3.00;;;28.00;24.10;;;;;;2259814;61;20408;-71
2023/05/31 22:23:13;0.00;0.00;0.62;0.00;0.00;0.62;4.07;2.50;;;28.00;24.10;;;;;;2260452;61;20416;-70
2023/05/31 22:25:59;0.00;0.00;0.62;0.00;0.00;0.62;3.23;2.20;;;28.00;24.10;;;;;;2259921;61;20896;-69
2023/05/31 22:28:44;0.00;0.00;0.62;0.00;0.00;0.62;3.07;2.77;;;28.00;24.10;;;;;;2260297;61;20365;-69
2023/05/31 22:31:29;0.00;0.00;0.62;0.00;0.00;0.62;3.60;2.43;;;28.00;24.00;;;;;;2259418;61;20970;-69
2023/05/31 22:34:14;0.00;0.00;0.62;0.00;0.00;0.62;2.73;2.37;;;28.00;24.00;;;;;;2260345;61;20423;-69
2023/05/31 22:37:00;0.00;0.00;0.62;0.00;0.00;0.62;3.80;2.97;;;28.00;24.00;;;;;;2260099;61;20885;-68
2023/05/31 22:39:45;0.00;0.00;0.62;0.00;0.00;0.62;3.13;2.57;;;28.00;24.00;;;;;;2260491;61;20830;-69
2023/05/31 22:42:31;0.00;0.00;0.62;0.00;0.00;0.62;3.40;2.50;;;28.00;24.00;;;;;;2259494;61;20385;-68
2023/05/31 22:45:16;0.00;0.00;0.62;0.00;0.00;0.62;3.33;2.60;;;27.90;24.00;;;;;;2260326;61;20415;-69
2023/05/31 22:48:00;0.00;0.00;0.62;0.00;0.00;0.62;3.87;2.80;;;27.90;23.90;;;;;;2260278;61;20880;-70
2023/05/31 22:50:45;0.00;0.00;0.62;0.00;0.00;0.62;3.27;2.50;;;27.90;23.90;;;;;;2259860;61;20956;-67
2023/05/31 22:53:30;0.00;0.00;0.62;0.00;0.00;0.62;4.33;3.20;;;27.90;23.90;;;;;;2260315;61;20365;-67
2023/05/31 22:56:15;0.00;0.00;0.62;0.00;0.00;0.62;4.10;2.30;;;27.90;23.90;;;;;;2260190;61;20424;-69
2023/05/31 22:59:01;0.00;0.00;0.62;0.00;0.00;0.62;3.03;2.47;;;27.90;23.80;;;;;;2260024;61;20499;-73
2023/05/31 23:01:46;0.00;0.00;0.62;0.00;0.00;0.62;4.00;3.10;;;27.90;23.80;;;;;;2260067;61;20714;-69
2023/05/31 23:04:31;0.00;0.00;0.62;0.00;0.00;0.62;3.03;2.70;;;27.90;23.80;;;;;;2259768;61;20392;-68
2023/05/31 23:07:17;0.00;0.00;0.62;0.00;0.00;0.62;2.87;2.27;;;27.90;23.80;;;;;;2260364;61;20365;-69
2023/05/31 23:10:03;0.00;0.00;0.62;0.00;0.00;0.62;4.63;2.80;;;27.90;23.80;;;;;;2260113;61;20908;-69
2023/05/31 23:12:51;0.00;0.00;0.62;0.00;0.00;0.62;3.43;2.80;;;27.90;23.80;;;;;;2260115;61;20361;-69
2023/05/31 23:15:39;0.00;0.00;0.62;0.00;0.00;0.62;4.70;2.67;;;27.90;23.80;;;;;;2260157;61;20428;-68
2023/05/31 23:18:24;0.00;0.00;0.62;0.00;0.00;0.62;3.57;2.87;;;27.90;23.80;;;;;;2260294;61;20364;-69
2023/05/31 23:21:09;0.00;0.00;0.62;0.00;0.00;0.62;2.40;1.90;;;27.90;23.80;;;;;;2259542;61;20427;-68
2023/05/31 23:23:55;0.00;0.00;0.62;0.00;0.00;0.62;2.77;2.00;;;27.80;23.70;;;;;;2260284;61;20361;-68
2023/05/31 23:26:40;0.00;0.00;0.62;0.00;0.00;0.62;3.87;2.57;;;27.80;23.70;;;;;;2260359;61;20427;-69
2023/05/31 23:29:24;0.00;0.00;0.62;0.00;0.00;0.62;3.07;2.50;;;27.80;23.70;;;;;;2260317;61;20816;-69
2023/05/31 23:32:11;0.00;0.00;0.62;0.00;0.00;0.62;2.90;2.60;;;27.80;23.70;;;;;;2259848;61;20474;-70
2023/05/31 23:34:56;0.00;0.00;0.62;0.00;0.00;0.62;3.40;2.70;;;27.80;23.70;;;;;;2259777;61;20381;-68
2023/05/31 23:37:41;0.00;0.00;0.62;0.00;0.00;0.62;2.60;2.40;;;27.80;23.70;;;;;;2260790;61;20392;-70
2023/05/31 23:40:25;0.00;0.00;0.62;0.00;0.00;0.62;4.33;2.60;;;27.80;23.70;;;;;;2260839;61;20515;-69
2023/05/31 23:43:10;0.00;0.00;0.62;0.00;0.00;0.62;3.67;2.93;;;27.80;23.70;;;;;;2260712;61;20376;-70
2023/05/31 23:45:55;0.00;0.00;0.62;0.00;0.00;0.62;4.53;3.00;;;27.80;23.70;;;;;;2260777;61;20356;-70
2023/05/31 23:48:41;0.00;0.00;0.62;0.00;0.00;0.62;2.90;2.57;;;27.80;23.70;;;;;;2260936;61;20361;-68
2023/05/31 23:51:26;0.00;0.00;0.62;0.00;0.00;0.62;3.00;2.33;;;27.80;23.70;;;;;;2260510;61;20404;-68
2023/05/31 23:54:11;0.00;0.00;0.62;0.00;0.00;0.62;3.67;2.50;;;27.80;23.70;;;;;;2260961;61;20368;-69
2023/05/31 23:56:55;0.00;0.00;0.62;0.00;0.00;0.62;4.10;2.50;;;27.80;23.70;;;;;;2260789;61;20388;-68
2023/05/31 23:59:40;0.00;0.00;0.62;0.00;0.00;0.62;3.50;2.23;;;27.80;23.70;;;;;;2260872;61;20368;-68
